Llica d'Amunt, Spain
Current Conditions -  °F | °C
As of 3:30 PM on Friday 24 Oct 2014 (Local Time) from LELL Reporting Station
Clear Clear  
Wind Chill: 79°   Ceiling: Unl
Heat Index: 79°   Visibility: 6mi
Dew Point: 52°   Wind: 6mph
Humidity: 39%   Direction: 120°ESE
Pressure: 29.97"   Gusts: NA
Location:  41.62°N, 2.23°E
Report Text: LELL 241330Z 12005KT 080V160 CAVOK 26/11 Q1015
Loading
Personal Weather Stations






























Interactive Weather Map New forecast layout! Learn more

10-Day Weather Forecast

Advertisements
Track Severe Weather on mobile